sensor_id;sensor_type;location;lat;lon;timestamp;pressure;altitude;pressure_sealevel;temperature;humidity
43553;BME280;29153;42.696;23.218;2023-01-09T00:00:54;94769.48;;;-2.47;98.25
43553;BME280;29153;42.696;23.218;2023-01-09T00:03:21;94770.16;;;-2.38;97.98
43553;BME280;29153;42.696;23.218;2023-01-09T00:05:49;94769.91;;;-2.43;98.35
43553;BME280;29153;42.696;23.218;2023-01-09T00:08:16;94767.09;;;-2.48;98.26
43553;BME280;29153;42.696;23.218;2023-01-09T00:10:44;94766.22;;;-2.55;98.78
43553;BME280;29153;42.696;23.218;2023-01-09T00:13:13;94766.47;;;-2.50;98.80
43553;BME280;29153;42.696;23.218;2023-01-09T00:15:41;94758.94;;;-2.45;98.56
43553;BME280;29153;42.696;23.218;2023-01-09T00:18:08;94757.39;;;-2.50;98.54
43553;BME280;29153;42.696;23.218;2023-01-09T00:20:36;94759.74;;;-2.55;98.51
43553;BME280;29153;42.696;23.218;2023-01-09T00:23:03;94753.95;;;-2.57;98.15
43553;BME280;29153;42.696;23.218;2023-01-09T00:25:31;94760.05;;;-2.54;98.09
43553;BME280;29153;42.696;23.218;2023-01-09T00:27:58;94762.65;;;-2.54;98.12
43553;BME280;29153;42.696;23.218;2023-01-09T00:30:26;94760.38;;;-2.53;97.81
43553;BME280;29153;42.696;23.218;2023-01-09T00:32:54;94762.65;;;-2.54;98.10
43553;BME280;29153;42.696;23.218;2023-01-09T00:35:24;94757.08;;;-2.51;98.03
43553;BME280;29153;42.696;23.218;2023-01-09T00:37:51;94757.70;;;-2.49;97.66
43553;BME280;29153;42.696;23.218;2023-01-09T00:40:19;94756.59;;;-2.51;97.45
43553;BME280;29153;42.696;23.218;2023-01-09T00:42:52;94759.25;;;-2.55;97.17
43553;BME280;29153;42.696;23.218;2023-01-09T00:45:22;94761.17;;;-2.63;97.30
43553;BME280;29153;42.696;23.218;2023-01-09T00:47:53;94764.08;;;-2.62;97.60
43553;BME280;29153;42.696;23.218;2023-01-09T00:50:23;94763.45;;;-2.64;97.89
43553;BME280;29153;42.696;23.218;2023-01-09T00:52:54;94765.94;;;-2.67;97.75
43553;BME280;29153;42.696;23.218;2023-01-09T00:55:23;94756.78;;;-2.73;97.61
43553;BME280;29153;42.696;23.218;2023-01-09T00:57:50;94754.51;;;-2.72;97.48
43553;BME280;29153;42.696;23.218;2023-01-09T01:00:18;94752.05;;;-2.81;97.35
43553;BME280;29153;42.696;23.218;2023-01-09T01:02:46;94757.48;;;-2.76;97.39
43553;BME280;29153;42.696;23.218;2023-01-09T01:05:13;94761.18;;;-2.85;97.65
43553;BME280;29153;42.696;23.218;2023-01-09T01:07:59;94758.59;;;-2.85;98.04
43553;BME280;29153;42.696;23.218;2023-01-09T01:10:26;94745.99;;;-2.77;98.21
43553;BME280;29153;42.696;23.218;2023-01-09T01:12:54;94752.47;;;-2.77;98.07
43553;BME280;29153;42.696;23.218;2023-01-09T01:15:22;94745.56;;;-2.81;98.16
43553;BME280;29153;42.696;23.218;2023-01-09T01:17:51;94734.63;;;-2.87;98.01
43553;BME280;29153;42.696;23.218;2023-01-09T01:20:18;94734.28;;;-2.84;98.10
43553;BME280;29153;42.696;23.218;2023-01-09T01:22:46;94736.56;;;-2.85;97.86
43553;BME280;29153;42.696;23.218;2023-01-09T01:25:14;94734.88;;;-2.82;98.03
43553;BME280;29153;42.696;23.218;2023-01-09T01:27:43;94733.18;;;-2.96;98.23
43553;BME280;29153;42.696;23.218;2023-01-09T01:30:13;94699.30;;;-3.15;98.36
43553;BME280;29153;42.696;23.218;2023-01-09T01:32:41;94730.27;;;-2.97;98.62
43553;BME280;29153;42.696;23.218;2023-01-09T01:35:10;94730.70;;;-2.93;98.68
43553;BME280;29153;42.696;23.218;2023-01-09T01:37:37;94725.41;;;-2.96;98.78
43553;BME280;29153;42.696;23.218;2023-01-09T01:40:06;94715.84;;;-2.95;98.95
43553;BME280;29153;42.696;23.218;2023-01-09T01:42:34;94716.06;;;-2.90;99.02
43553;BME280;29153;42.696;23.218;2023-01-09T01:45:10;94711.02;;;-2.88;98.82
43553;BME280;29153;42.696;23.218;2023-01-09T01:50:40;94710.27;;;-3.03;98.62
43553;BME280;29153;42.696;23.218;2023-01-09T01:53:16;94699.11;;;-2.93;98.64
43553;BME280;29153;42.696;23.218;2023-01-09T01:56:01;94696.20;;;-2.94;98.42
43553;BME280;29153;42.696;23.218;2023-01-09T01:58:26;94694.98;;;-2.98;98.38
43553;BME280;29153;42.696;23.218;2023-01-09T02:00:54;94697.99;;;-2.94;98.31
43553;BME280;29153;42.696;23.218;2023-01-09T02:03:24;94693.69;;;-2.98;98.21
43553;BME280;29153;42.696;23.218;2023-01-09T02:05:52;94691.78;;;-3.00;98.31
43553;BME280;29153;42.696;23.218;2023-01-09T02:08:20;94686.89;;;-2.99;98.47
43553;BME280;29153;42.696;23.218;2023-01-09T02:10:49;94686.54;;;-2.96;98.37
43553;BME280;29153;42.696;23.218;2023-01-09T02:13:18;94682.72;;;-3.00;98.20
43553;BME280;29153;42.696;23.218;2023-01-09T02:18:55;94679.20;;;-3.13;98.57
43553;BME280;29153;42.696;23.218;2023-01-09T02:29:44;94681.17;;;-3.05;98.89
43553;BME280;29153;42.696;23.218;2023-01-09T02:32:18;94675.78;;;-3.03;98.52
43553;BME280;29153;42.696;23.218;2023-01-09T02:37:36;94676.25;;;-3.21;99.16
43553;BME280;29153;42.696;23.218;2023-01-09T02:43:11;94665.20;;;-3.19;99.73
43553;BME280;29153;42.696;23.218;2023-01-09T02:45:39;94657.98;;;-3.13;99.38
43553;BME280;29153;42.696;23.218;2023-01-09T02:48:13;94651.80;;;-3.12;99.19
43553;BME280;29153;42.696;23.218;2023-01-09T02:53:50;94660.52;;;-3.09;98.98
43553;BME280;29153;42.696;23.218;2023-01-09T02:56:30;94658.80;;;-3.12;98.86
43553;BME280;29153;42.696;23.218;2023-01-09T03:07:36;94657.30;;;-3.11;99.43
43553;BME280;29153;42.696;23.218;2023-01-09T03:12:41;94650.19;;;-3.02;99.24
43553;BME280;29153;42.696;23.218;2023-01-09T03:15:11;94659.88;;;-3.11;99.29
43553;BME280;29153;42.696;23.218;2023-01-09T03:17:42;94659.88;;;-3.11;99.51
43553;BME280;29153;42.696;23.218;2023-01-09T03:20:12;94659.69;;;-2.99;99.64
43553;BME280;29153;42.696;23.218;2023-01-09T03:22:46;94665.25;;;-2.91;99.43
43553;BME280;29153;42.696;23.218;2023-01-09T03:25:13;94663.70;;;-2.96;99.50
43553;BME280;29153;42.696;23.218;2023-01-09T03:27:42;94663.36;;;-2.87;99.48
43553;BME280;29153;42.696;23.218;2023-01-09T03:30:10;94658.56;;;-2.90;99.36
43553;BME280;29153;42.696;23.218;2023-01-09T03:32:37;94652.95;;;-2.83;99.50
43553;BME280;29153;42.696;23.218;2023-01-09T03:35:05;94652.50;;;-2.86;99.98
43553;BME280;29153;42.696;23.218;2023-01-09T03:37:33;94655.66;;;-2.91;100.00
43553;BME280;29153;42.696;23.218;2023-01-09T03:40:00;94644.70;;;-2.93;100.00
43553;BME280;29153;42.696;23.218;2023-01-09T03:42:28;94642.59;;;-2.93;100.00
43553;BME280;29153;42.696;23.218;2023-01-09T03:44:55;94642.59;;;-2.83;99.75
43553;BME280;29153;42.696;23.218;2023-01-09T03:47:23;94648.55;;;-2.82;99.20
43553;BME280;29153;42.696;23.218;2023-01-09T03:49:50;94657.09;;;-2.99;99.08
43553;BME280;29153;42.696;23.218;2023-01-09T03:52:18;94651.31;;;-3.01;98.83
43553;BME280;29153;42.696;23.218;2023-01-09T03:54:45;94654.95;;;-3.06;98.94
43553;BME280;29153;42.696;23.218;2023-01-09T03:57:13;94642.73;;;-3.01;99.35
43553;BME280;29153;42.696;23.218;2023-01-09T03:59:40;94654.43;;;-2.95;99.17
43553;BME280;29153;42.696;23.218;2023-01-09T04:02:08;94656.06;;;-3.15;99.11
43553;BME280;29153;42.696;23.218;2023-01-09T04:04:35;94662.41;;;-3.07;99.29
43553;BME280;29153;42.696;23.218;2023-01-09T04:07:03;94656.91;;;-3.08;98.87
43553;BME280;29153;42.696;23.218;2023-01-09T04:09:30;94649.59;;;-3.15;98.34
43553;BME280;29153;42.696;23.218;2023-01-09T04:11:58;94653.35;;;-3.28;99.25
43553;BME280;29153;42.696;23.218;2023-01-09T04:14:25;94652.31;;;-3.12;99.20
43553;BME280;29153;42.696;23.218;2023-01-09T04:16:53;94638.87;;;-3.23;98.28
43553;BME280;29153;42.696;23.218;2023-01-09T04:19:20;94654.91;;;-3.12;98.04
43553;BME280;29153;42.696;23.218;2023-01-09T04:21:48;94650.09;;;-3.26;97.88
43553;BME280;29153;42.696;23.218;2023-01-09T04:24:15;94650.09;;;-3.26;98.11
43553;BME280;29153;42.696;23.218;2023-01-09T04:26:43;94651.81;;;-3.23;98.09
43553;BME280;29153;42.696;23.218;2023-01-09T04:29:10;94654.65;;;-3.28;97.87
43553;BME280;29153;42.696;23.218;2023-01-09T04:31:38;94651.02;;;-3.23;97.79
43553;BME280;29153;42.696;23.218;2023-01-09T04:34:05;94649.41;;;-3.24;97.58
43553;BME280;29153;42.696;23.218;2023-01-09T04:36:33;94643.42;;;-3.25;97.29
43553;BME280;29153;42.696;23.218;2023-01-09T04:39:02;94651.39;;;-3.26;97.19
43553;BME280;29153;42.696;23.218;2023-01-09T04:41:29;94645.16;;;-3.32;97.42
43553;BME280;29153;42.696;23.218;2023-01-09T04:44:20;94639.31;;;-3.30;96.86
43553;BME280;29153;42.696;23.218;2023-01-09T04:46:48;94628.63;;;-3.41;96.93
43553;BME280;29153;42.696;23.218;2023-01-09T04:49:16;94632.26;;;-3.46;96.88
43553;BME280;29153;42.696;23.218;2023-01-09T04:51:43;94637.45;;;-3.57;97.12
43553;BME280;29153;42.696;23.218;2023-01-09T04:54:11;94637.13;;;-3.58;97.09
43553;BME280;29153;42.696;23.218;2023-01-09T04:56:38;94636.05;;;-3.59;97.15
43553;BME280;29153;42.696;23.218;2023-01-09T04:59:07;94634.80;;;-3.53;96.87
43553;BME280;29153;42.696;23.218;2023-01-09T05:01:35;94637.63;;;-3.58;96.65
43553;BME280;29153;42.696;23.218;2023-01-09T05:04:03;94638.80;;;-3.61;97.10
43553;BME280;29153;42.696;23.218;2023-01-09T05:06:31;94634.55;;;-3.69;97.30
43553;BME280;29153;42.696;23.218;2023-01-09T05:08:59;94643.84;;;-3.63;97.64
43553;BME280;29153;42.696;23.218;2023-01-09T05:11:27;94639.86;;;-3.55;97.07
43553;BME280;29153;42.696;23.218;2023-01-09T05:13:55;94642.45;;;-3.55;96.72
43553;BME280;29153;42.696;23.218;2023-01-09T05:16:22;94656.14;;;-3.76;96.72
43553;BME280;29153;42.696;23.218;2023-01-09T05:18:50;94661.26;;;-3.83;97.16
43553;BME280;29153;42.696;23.218;2023-01-09T05:21:19;94655.91;;;-3.71;97.33
43553;BME280;29153;42.696;23.218;2023-01-09T05:23:46;94655.97;;;-3.75;97.30
43553;BME280;29153;42.696;23.218;2023-01-09T05:26:14;94658.04;;;-3.85;97.33
43553;BME280;29153;42.696;23.218;2023-01-09T05:28:41;94655.71;;;-3.80;97.49
43553;BME280;29153;42.696;23.218;2023-01-09T05:31:09;94651.48;;;-3.77;97.59
43553;BME280;29153;42.696;23.218;2023-01-09T05:33:36;94645.36;;;-3.80;97.41
43553;BME280;29153;42.696;23.218;2023-01-09T05:36:04;94639.78;;;-3.73;97.50
43553;BME280;29153;42.696;23.218;2023-01-09T05:38:31;94636.19;;;-3.72;97.40
43553;BME280;29153;42.696;23.218;2023-01-09T05:40:59;94635.96;;;-3.77;97.25
43553;BME280;29153;42.696;23.218;2023-01-09T05:43:27;94630.27;;;-3.76;97.56
43553;BME280;29153;42.696;23.218;2023-01-09T05:45:54;94629.11;;;-3.74;97.34
43553;BME280;29153;42.696;23.218;2023-01-09T05:48:22;94632.80;;;-3.72;97.66
43553;BME280;29153;42.696;23.218;2023-01-09T05:50:49;94632.36;;;-3.76;98.05
43553;BME280;29153;42.696;23.218;2023-01-09T05:53:17;94632.30;;;-3.72;98.55
43553;BME280;29153;42.696;23.218;2023-01-09T05:55:44;94633.25;;;-3.69;98.80
43553;BME280;29153;42.696;23.218;2023-01-09T05:58:12;94633.59;;;-3.72;99.73
43553;BME280;29153;42.696;23.218;2023-01-09T06:00:39;94585.97;;;-3.88;99.18
43553;BME280;29153;42.696;23.218;2023-01-09T06:03:07;94633.31;;;-3.73;99.03
43553;BME280;29153;42.696;23.218;2023-01-09T06:05:35;94620.37;;;-3.73;99.23
43553;BME280;29153;42.696;23.218;2023-01-09T06:08:02;94622.84;;;-3.64;99.58
43553;BME280;29153;42.696;23.218;2023-01-09T06:10:30;94626.23;;;-3.64;100.00
43553;BME280;29153;42.696;23.218;2023-01-09T06:12:57;94625.00;;;-3.57;99.73
43553;BME280;29153;42.696;23.218;2023-01-09T06:15:25;94612.43;;;-3.60;99.82
43553;BME280;29153;42.696;23.218;2023-01-09T06:17:53;94614.58;;;-3.53;100.00
43553;BME280;29153;42.696;23.218;2023-01-09T06:20:20;94615.20;;;-3.51;99.97
43553;BME280;29153;42.696;23.218;2023-01-09T06:22:48;94615.76;;;-3.56;100.00
43553;BME280;29153;42.696;23.218;2023-01-09T06:25:17;94608.91;;;-3.53;100.00
43553;BME280;29153;42.696;23.218;2023-01-09T06:27:45;94614.70;;;-3.40;100.00
43553;BME280;29153;42.696;23.218;2023-01-09T06:30:12;94617.40;;;-3.38;100.00
43553;BME280;29153;42.696;23.218;2023-01-09T06:32:40;94601.88;;;-3.59;100.00
43553;BME280;29153;42.696;23.218;2023-01-09T06:35:08;94609.33;;;-3.28;100.00
43553;BME280;29153;42.696;23.218;2023-01-09T06:37:35;94616.16;;;-3.21;100.00
43553;BME280;29153;42.696;23.218;2023-01-09T06:40:03;94611.30;;;-3.09;100.00
43553;BME280;29153;42.696;23.218;2023-01-09T06:42:31;94610.03;;;-3.02;100.00
43553;BME280;29153;42.696;23.218;2023-01-09T06:44:58;94607.70;;;-2.80;100.00
43553;BME280;29153;42.696;23.218;2023-01-09T06:47:26;94613.62;;;-2.76;100.00
43553;BME280;29153;42.696;23.218;2023-01-09T06:49:53;94618.73;;;-2.71;100.00
43553;BME280;29153;42.696;23.218;2023-01-09T06:52:22;94618.16;;;-2.67;100.00
43553;BME280;29153;42.696;23.218;2023-01-09T06:54:50;94613.86;;;-2.53;100.00
43553;BME280;29153;42.696;23.218;2023-01-09T06:57:17;94618.81;;;-2.41;100.00
43553;BME280;29153;42.696;23.218;2023-01-09T06:59:46;94618.88;;;-2.28;100.00
43553;BME280;29153;42.696;23.218;2023-01-09T07:02:18;94614.74;;;-2.16;100.00
43553;BME280;29153;42.696;23.218;2023-01-09T07:04:46;94619.17;;;-2.10;100.00
43553;BME280;29153;42.696;23.218;2023-01-09T07:07:14;94623.30;;;-1.98;100.00
43553;BME280;29153;42.696;23.218;2023-01-09T07:09:41;94615.97;;;-1.81;100.00
43553;BME280;29153;42.696;23.218;2023-01-09T07:12:09;94613.20;;;-1.73;100.00
43553;BME280;29153;42.696;23.218;2023-01-09T07:14:36;94600.84;;;-1.58;100.00
43553;BME280;29153;42.696;23.218;2023-01-09T07:17:04;94606.06;;;-1.45;100.00
43553;BME280;29153;42.696;23.218;2023-01-09T07:19:32;94602.38;;;-1.40;100.00
43553;BME280;29153;42.696;23.218;2023-01-09T07:21:59;94614.09;;;-1.27;100.00
43553;BME280;29153;42.696;23.218;2023-01-09T07:24:27;94616.72;;;-1.07;100.00
43553;BME280;29153;42.696;23.218;2023-01-09T07:26:54;94606.72;;;-0.90;100.00
43553;BME280;29153;42.696;23.218;2023-01-09T07:29:22;94598.30;;;-0.73;100.00
43553;BME280;29153;42.696;23.218;2023-01-09T07:31:49;94600.42;;;-0.37;100.00
43553;BME280;29153;42.696;23.218;2023-01-09T07:34:17;94599.86;;;-0.17;100.00
43553;BME280;29153;42.696;23.218;2023-01-09T07:36:44;94609.08;;;-0.14;100.00
43553;BME280;29153;42.696;23.218;2023-01-09T07:39:14;94603.26;;;-0.10;100.00
43553;BME280;29153;42.696;23.218;2023-01-09T07:41:41;94613.52;;;0.01;100.00
43553;BME280;29153;42.696;23.218;2023-01-09T07:44:09;94614.43;;;0.04;100.00
43553;BME280;29153;42.696;23.218;2023-01-09T07:46:37;94608.36;;;0.17;100.00
43553;BME280;29153;42.696;23.218;2023-01-09T07:49:05;94616.26;;;0.41;100.00
43553;BME280;29153;42.696;23.218;2023-01-09T07:51:33;94616.83;;;0.43;100.00
43553;BME280;29153;42.696;23.218;2023-01-09T07:54:00;94609.30;;;0.67;100.00
43553;BME280;29153;42.696;23.218;2023-01-09T07:56:28;94631.14;;;0.81;100.00
43553;BME280;29153;42.696;23.218;2023-01-09T07:58:55;94623.70;;;1.01;100.00
43553;BME280;29153;42.696;23.218;2023-01-09T08:01:23;94620.63;;;1.10;100.00
43553;BME280;29153;42.696;23.218;2023-01-09T08:03:50;94623.91;;;1.15;100.00
43553;BME280;29153;42.696;23.218;2023-01-09T08:06:18;94625.68;;;1.30;100.00
43553;BME280;29153;42.696;23.218;2023-01-09T08:08:45;94626.53;;;1.49;100.00
43553;BME280;29153;42.696;23.218;2023-01-09T08:11:12;94635.17;;;1.67;100.00
43553;BME280;29153;42.696;23.218;2023-01-09T08:13:40;94613.14;;;1.81;100.00
43553;BME280;29153;42.696;23.218;2023-01-09T08:16:07;94602.47;;;2.01;100.00
43553;BME280;29153;42.696;23.218;2023-01-09T08:18:35;94625.92;;;1.99;100.00
43553;BME280;29153;42.696;23.218;2023-01-09T08:21:03;94634.13;;;2.20;100.00
43553;BME280;29153;42.696;23.218;2023-01-09T08:23:30;94632.50;;;2.47;100.00
43553;BME280;29153;42.696;23.218;2023-01-09T08:25:58;94618.94;;;2.38;100.00
43553;BME280;29153;42.696;23.218;2023-01-09T08:28:25;94630.06;;;2.63;100.00
43553;BME280;29153;42.696;23.218;2023-01-09T08:30:53;94618.26;;;2.82;100.00
43553;BME280;29153;42.696;23.218;2023-01-09T08:33:20;94628.08;;;2.77;100.00
43553;BME280;29153;42.696;23.218;2023-01-09T08:35:48;94624.31;;;2.94;100.00
43553;BME280;29153;42.696;23.218;2023-01-09T08:38:15;94624.63;;;3.06;99.55
43553;BME280;29153;42.696;23.218;2023-01-09T08:40:45;94635.06;;;3.15;99.47
43553;BME280;29153;42.696;23.218;2023-01-09T08:43:13;94627.52;;;3.28;99.44
43553;BME280;29153;42.696;23.218;2023-01-09T08:45:59;94627.23;;;3.39;99.47
43553;BME280;29153;42.696;23.218;2023-01-09T08:48:45;94618.53;;;3.47;98.48
43553;BME280;29153;42.696;23.218;2023-01-09T08:51:13;94612.06;;;3.61;98.47
43553;BME280;29153;42.696;23.218;2023-01-09T08:53:41;94604.52;;;3.77;95.72
43553;BME280;29153;42.696;23.218;2023-01-09T08:56:08;94605.84;;;3.88;95.45
43553;BME280;29153;42.696;23.218;2023-01-09T08:58:36;94607.13;;;4.00;94.85
43553;BME280;29153;42.696;23.218;2023-01-09T09:01:07;94598.17;;;4.10;93.95
43553;BME280;29153;42.696;23.218;2023-01-09T09:03:34;94595.30;;;4.23;91.59
43553;BME280;29153;42.696;23.218;2023-01-09T09:06:02;94593.05;;;4.29;91.35
43553;BME280;29153;42.696;23.218;2023-01-09T09:08:31;94591.44;;;4.14;91.34
43553;BME280;29153;42.696;23.218;2023-01-09T09:10:59;94592.64;;;4.09;92.50
43553;BME280;29153;42.696;23.218;2023-01-09T09:13:26;94581.67;;;4.38;91.09
43553;BME280;29153;42.696;23.218;2023-01-09T09:15:54;94577.94;;;4.48;90.65
43553;BME280;29153;42.696;23.218;2023-01-09T09:18:21;94573.85;;;4.54;90.14
43553;BME280;29153;42.696;23.218;2023-01-09T09:20:49;94575.88;;;4.36;89.55
43553;BME280;29153;42.696;23.218;2023-01-09T09:23:16;94570.11;;;4.50;90.85
43553;BME280;29153;42.696;23.218;2023-01-09T09:25:44;94558.56;;;4.80;89.25
43553;BME280;29153;42.696;23.218;2023-01-09T09:28:11;94562.59;;;4.85;87.98
43553;BME280;29153;42.696;23.218;2023-01-09T09:30:39;94548.02;;;4.91;86.83
43553;BME280;29153;42.696;23.218;2023-01-09T09:33:07;94549.16;;;4.98;86.70
43553;BME280;29153;42.696;23.218;2023-01-09T09:35:36;94545.95;;;4.79;85.63
43553;BME280;29153;42.696;23.218;2023-01-09T09:38:04;94546.00;;;4.96;87.17
43553;BME280;29153;42.696;23.218;2023-01-09T09:40:45;94537.33;;;5.12;85.63
43553;BME280;29153;42.696;23.218;2023-01-09T09:43:56;94525.08;;;5.18;84.79
43553;BME280;29153;42.696;23.218;2023-01-09T09:46:18;94516.80;;;5.26;85.61
43553;BME280;29153;42.696;23.218;2023-01-09T09:48:49;94503.92;;;5.27;83.88
43553;BME280;29153;42.696;23.218;2023-01-09T09:54:15;94499.20;;;5.45;83.83
43553;BME280;29153;42.696;23.218;2023-01-09T09:56:48;94499.47;;;5.66;83.53
43553;BME280;29153;42.696;23.218;2023-01-09T09:59:25;94486.32;;;5.85;83.68
43553;BME280;29153;42.696;23.218;2023-01-09T10:04:41;94454.42;;;6.22;82.66
43553;BME280;29153;42.696;23.218;2023-01-09T10:07:17;94455.59;;;6.07;79.96
43553;BME280;29153;42.696;23.218;2023-01-09T10:09:52;94437.63;;;6.26;79.85
43553;BME280;29153;42.696;23.218;2023-01-09T10:12:31;94437.61;;;6.23;80.34
43553;BME280;29153;42.696;23.218;2023-01-09T10:17:51;94426.39;;;6.06;81.06
43553;BME280;29153;42.696;23.218;2023-01-09T10:20:34;94426.34;;;6.28;80.42
43553;BME280;29153;42.696;23.218;2023-01-09T10:26:05;94423.34;;;6.78;79.49
43553;BME280;29153;42.696;23.218;2023-01-09T10:37:04;94410.84;;;6.98;76.62
43553;BME280;29153;42.696;23.218;2023-01-09T10:39:42;94406.97;;;7.10;75.84
43553;BME280;29153;42.696;23.218;2023-01-09T10:42:17;94412.47;;;7.04;75.15
43553;BME280;29153;42.696;23.218;2023-01-09T10:44:45;94394.55;;;7.03;76.64
43553;BME280;29153;42.696;23.218;2023-01-09T10:47:15;94398.85;;;7.14;75.73
43553;BME280;29153;42.696;23.218;2023-01-09T10:49:44;94392.55;;;7.18;75.94
43553;BME280;29153;42.696;23.218;2023-01-09T10:52:16;94379.63;;;6.77;75.42
43553;BME280;29153;42.696;23.218;2023-01-09T10:54:48;94364.55;;;7.04;76.51
43553;BME280;29153;42.696;23.218;2023-01-09T10:57:33;94367.70;;;7.06;76.35
43553;BME280;29153;42.696;23.218;2023-01-09T10:59:58;94364.82;;;7.05;76.22
43553;BME280;29153;42.696;23.218;2023-01-09T11:02:31;94352.02;;;7.26;76.29
43553;BME280;29153;42.696;23.218;2023-01-09T11:05:00;94354.05;;;7.09;75.67
43553;BME280;29153;42.696;23.218;2023-01-09T11:07:35;94353.83;;;7.21;75.60
43553;BME280;29153;42.696;23.218;2023-01-09T11:10:06;94347.08;;;7.40;75.29
43553;BME280;29153;42.696;23.218;2023-01-09T11:12:35;94348.17;;;7.52;74.43
43553;BME280;29153;42.696;23.218;2023-01-09T11:15:23;94340.03;;;7.61;74.69
43553;BME280;29153;42.696;23.218;2023-01-09T11:17:53;94349.53;;;7.64;74.74
43553;BME280;29153;42.696;23.218;2023-01-09T11:20:27;94337.10;;;7.55;75.18
43553;BME280;29153;42.696;23.218;2023-01-09T11:22:57;94335.30;;;7.70;74.93
43553;BME280;29153;42.696;23.218;2023-01-09T11:25:27;94336.89;;;7.69;75.62
43553;BME280;29153;42.696;23.218;2023-01-09T11:28:05;94339.97;;;7.46;75.09
43553;BME280;29153;42.696;23.218;2023-01-09T11:30:35;94326.56;;;7.55;75.53
43553;BME280;29153;42.696;23.218;2023-01-09T11:33:14;94321.83;;;7.62;76.36
43553;BME280;29153;42.696;23.218;2023-01-09T11:36:03;94323.48;;;7.88;74.66
43553;BME280;29153;42.696;23.218;2023-01-09T11:38:55;94329.56;;;7.94;73.99
43553;BME280;29153;42.696;23.218;2023-01-09T11:41:03;94328.46;;;7.69;74.42
43553;BME280;29153;42.696;23.218;2023-01-09T11:43:39;94316.59;;;7.72;73.90
43553;BME280;29153;42.696;23.218;2023-01-09T11:46:08;94311.80;;;7.54;74.96
43553;BME280;29153;42.696;23.218;2023-01-09T11:48:53;94314.66;;;7.40;74.59
43553;BME280;29153;42.696;23.218;2023-01-09T11:51:28;94305.76;;;7.66;74.88
43553;BME280;29153;42.696;23.218;2023-01-09T11:54:29;94307.13;;;7.78;74.82
43553;BME280;29153;42.696;23.218;2023-01-09T11:56:54;94296.58;;;7.89;75.38
43553;BME280;29153;42.696;23.218;2023-01-09T11:59:24;94305.02;;;7.86;73.86
43553;BME280;29153;42.696;23.218;2023-01-09T12:16:10;94269.16;;;7.82;73.07
43553;BME280;29153;42.696;23.218;2023-01-09T12:25:15;94262.02;;;7.65;73.32
43553;BME280;29153;42.696;23.218;2023-01-09T12:26:59;94262.03;;;7.77;72.00
43553;BME280;29153;42.696;23.218;2023-01-09T12:32:20;94266.24;;;7.76;72.84
43553;BME280;29153;42.696;23.218;2023-01-09T12:51:27;94237.02;;;6.90;76.34
43553;BME280;29153;42.696;23.218;2023-01-09T12:54:15;94229.73;;;7.12;75.45
43553;BME280;29153;42.696;23.218;2023-01-09T12:56:44;94226.55;;;7.10;75.04
43553;BME280;29153;42.696;23.218;2023-01-09T12:59:24;94216.78;;;6.96;75.63
43553;BME280;29153;42.696;23.218;2023-01-09T13:01:52;94218.13;;;7.08;75.54
43553;BME280;29153;42.696;23.218;2023-01-09T13:04:29;94218.15;;;7.16;75.44
43553;BME280;29153;42.696;23.218;2023-01-09T13:06:58;94218.91;;;7.06;75.58
43553;BME280;29153;42.696;23.218;2023-01-09T13:12:03;94206.83;;;7.13;75.29
43553;BME280;29153;42.696;23.218;2023-01-09T13:14:53;94204.69;;;7.07;75.45
43553;BME280;29153;42.696;23.218;2023-01-09T13:17:29;94193.63;;;7.00;75.32
43553;BME280;29153;42.696;23.218;2023-01-09T13:19:51;94205.48;;;7.10;75.68
43553;BME280;29153;42.696;23.218;2023-01-09T13:22:22;94198.36;;;7.03;75.98
43553;BME280;29153;42.696;23.218;2023-01-09T13:27:37;94189.09;;;6.83;76.89
43553;BME280;29153;42.696;23.218;2023-01-09T13:35:15;94197.84;;;7.01;75.99
43553;BME280;29153;42.696;23.218;2023-01-09T13:37:48;94189.94;;;7.04;76.27
43553;BME280;29153;42.696;23.218;2023-01-09T13:43:06;94195.13;;;6.76;76.42
43553;BME280;29153;42.696;23.218;2023-01-09T13:45:39;94190.08;;;6.72;76.39
43553;BME280;29153;42.696;23.218;2023-01-09T13:50:41;94193.58;;;6.90;76.54
43553;BME280;29153;42.696;23.218;2023-01-09T13:53:41;94201.16;;;6.74;76.47
43553;BME280;29153;42.696;23.218;2023-01-09T14:01:03;94190.08;;;6.67;77.00
43553;BME280;29153;42.696;23.218;2023-01-09T14:03:36;94189.81;;;6.66;76.81
43553;BME280;29153;42.696;23.218;2023-01-09T14:06:03;94191.62;;;6.58;76.88
43553;BME280;29153;42.696;23.218;2023-01-09T14:08:31;94188.66;;;6.44;77.45
43553;BME280;29153;42.696;23.218;2023-01-09T14:11:01;94193.30;;;6.27;78.44
43553;BME280;29153;42.696;23.218;2023-01-09T14:13:45;94183.29;;;6.24;78.46
43553;BME280;29153;42.696;23.218;2023-01-09T14:16:23;94179.55;;;6.17;79.00
43553;BME280;29153;42.696;23.218;2023-01-09T14:19:15;94181.83;;;6.01;79.45
43553;BME280;29153;42.696;23.218;2023-01-09T14:21:54;94168.91;;;5.94;80.06
43553;BME280;29153;42.696;23.218;2023-01-09T14:26:58;94175.84;;;5.79;80.59
43553;BME280;29153;42.696;23.218;2023-01-09T14:34:58;94177.64;;;5.39;82.47
43553;BME280;29153;42.696;23.218;2023-01-09T14:37:28;94169.03;;;5.46;82.37
43553;BME280;29153;42.696;23.218;2023-01-09T14:39:57;94168.97;;;5.38;82.76
43553;BME280;29153;42.696;23.218;2023-01-09T14:42:26;94163.50;;;5.16;83.71
43553;BME280;29153;42.696;23.218;2023-01-09T14:45:13;94156.38;;;5.14;84.00
43553;BME280;29153;42.696;23.218;2023-01-09T14:47:44;94154.36;;;4.94;84.57
43553;BME280;29153;42.696;23.218;2023-01-09T14:50:32;94159.61;;;4.94;84.93
43553;BME280;29153;42.696;23.218;2023-01-09T14:53:18;94146.48;;;4.91;84.94
43553;BME280;29153;42.696;23.218;2023-01-09T14:56:00;94155.83;;;4.82;85.15
43553;BME280;29153;42.696;23.218;2023-01-09T14:58:33;94150.45;;;4.70;85.68
43553;BME280;29153;42.696;23.218;2023-01-09T15:01:12;94145.15;;;4.67;85.91
43553;BME280;29153;42.696;23.218;2023-01-09T15:06:14;94144.49;;;4.55;86.35
43553;BME280;29153;42.696;23.218;2023-01-09T15:08:43;94142.59;;;4.48;86.83
43553;BME280;29153;42.696;23.218;2023-01-09T15:11:12;94141.58;;;4.51;86.47
43553;BME280;29153;42.696;23.218;2023-01-09T15:13:47;94131.67;;;4.34;86.99